sensor_id;sensor_type;location;lat;lon;timestamp;pressure;altitude;pressure_sealevel;temperature;humidity
68871;BME280;55906;52.278;6.808;2024-03-17T00:01:12;102295.03;;;6.23;85.53
68871;BME280;55906;52.278;6.808;2024-03-17T00:03:37;102292.81;;;6.29;85.61
68871;BME280;55906;52.278;6.808;2024-03-17T00:06:04;102282.56;;;6.19;85.58
68871;BME280;55906;52.278;6.808;2024-03-17T00:08:30;102295.31;;;6.28;85.87
68871;BME280;55906;52.278;6.808;2024-03-17T00:10:56;102291.09;;;6.30;85.82
68871;BME280;55906;52.278;6.808;2024-03-17T00:13:23;102291.09;;;6.30;85.40
68871;BME280;55906;52.278;6.808;2024-03-17T00:15:50;102289.00;;;6.24;85.55
68871;BME280;55906;52.278;6.808;2024-03-17T00:18:16;102295.22;;;6.26;84.79
68871;BME280;55906;52.278;6.808;2024-03-17T00:20:43;102298.63;;;6.25;85.65
68871;BME280;55906;52.278;6.808;2024-03-17T00:23:10;102261.06;;;6.10;85.56
68871;BME280;55906;52.278;6.808;2024-03-17T00:25:38;102272.81;;;6.17;86.00
68871;BME280;55906;52.278;6.808;2024-03-17T00:28:04;102283.06;;;6.27;84.94
68871;BME280;55906;52.278;6.808;2024-03-17T00:30:31;102277.94;;;6.28;85.81
68871;BME280;55906;52.278;6.808;2024-03-17T00:32:58;102275.41;;;6.30;86.06
68871;BME280;55906;52.278;6.808;2024-03-17T00:35:25;102272.81;;;6.30;85.97
68871;BME280;55906;52.278;6.808;2024-03-17T00:37:51;102273.72;;;6.30;85.46
68871;BME280;55906;52.278;6.808;2024-03-17T00:40:18;102268.50;;;6.30;85.69
68871;BME280;55906;52.278;6.808;2024-03-17T00:42:45;102264.06;;;6.29;85.55
68871;BME280;55906;52.278;6.808;2024-03-17T00:45:12;102267.47;;;6.28;84.70
68871;BME280;55906;52.278;6.808;2024-03-17T00:47:37;102256.53;;;6.21;85.92
68871;BME280;55906;52.278;6.808;2024-03-17T00:50:05;102253.00;;;6.20;85.76
68871;BME280;55906;52.278;6.808;2024-03-17T00:52:32;102261.84;;;6.22;85.77
68871;BME280;55906;52.278;6.808;2024-03-17T00:54:59;102259.25;;;6.22;85.93
68871;BME280;55906;52.278;6.808;2024-03-17T00:57:24;102241.97;;;6.11;85.84
68871;BME280;55906;52.278;6.808;2024-03-17T00:59:51;102230.19;;;6.04;85.82
68871;BME280;55906;52.278;6.808;2024-03-17T01:02:17;102245.78;;;6.16;86.00
68871;BME280;55906;52.278;6.808;2024-03-17T01:04:44;102227.69;;;6.06;85.78
68871;BME280;55906;52.278;6.808;2024-03-17T01:07:11;102243.97;;;6.15;85.86
68871;BME280;55906;52.278;6.808;2024-03-17T01:09:38;102237.75;;;6.13;85.81
68871;BME280;55906;52.278;6.808;2024-03-17T01:12:04;102239.44;;;6.13;86.08
68871;BME280;55906;52.278;6.808;2024-03-17T01:14:30;102213.03;;;5.95;85.34
68871;BME280;55906;52.278;6.808;2024-03-17T01:16:58;102217.53;;;5.97;86.14
68871;BME280;55906;52.278;6.808;2024-03-17T01:19:25;102209.50;;;5.94;86.11
68871;BME280;55906;52.278;6.808;2024-03-17T01:21:51;102222.66;;;5.96;85.70
68871;BME280;55906;52.278;6.808;2024-03-17T01:24:17;102231.00;;;6.03;86.09
68871;BME280;55906;52.278;6.808;2024-03-17T01:26:43;102212.81;;;5.92;86.14
68871;BME280;55906;52.278;6.808;2024-03-17T01:29:11;102225.28;;;5.96;86.03
68871;BME280;55906;52.278;6.808;2024-03-17T01:31:36;102231.91;;;5.91;85.76
68871;BME280;55906;52.278;6.808;2024-03-17T01:34:03;102232.72;;;5.90;86.42
68871;BME280;55906;52.278;6.808;2024-03-17T01:36:28;102212.78;;;5.78;85.78
68871;BME280;55906;52.278;6.808;2024-03-17T01:38:55;102232.38;;;5.85;86.60
68871;BME280;55906;52.278;6.808;2024-03-17T01:41:21;102220.41;;;5.75;86.24
68871;BME280;55906;52.278;6.808;2024-03-17T01:43:47;102231.25;;;5.82;85.98
68871;BME280;55906;52.278;6.808;2024-03-17T01:46:14;102224.22;;;5.81;86.46
68871;BME280;55906;52.278;6.808;2024-03-17T01:48:42;102212.38;;;5.72;86.18
68871;BME280;55906;52.278;6.808;2024-03-17T01:51:10;102216.00;;;5.74;86.54
68871;BME280;55906;52.278;6.808;2024-03-17T01:53:39;102228.13;;;5.74;85.98
68871;BME280;55906;52.278;6.808;2024-03-17T01:56:05;102215.47;;;5.67;86.21
68871;BME280;55906;52.278;6.808;2024-03-17T01:58:34;102228.31;;;5.64;85.90
68871;BME280;55906;52.278;6.808;2024-03-17T02:01:00;102226.41;;;5.61;86.69
68871;BME280;55906;52.278;6.808;2024-03-17T02:03:29;102222.91;;;5.61;86.33
68871;BME280;55906;52.278;6.808;2024-03-17T02:05:55;102212.75;;;5.52;86.48
68871;BME280;55906;52.278;6.808;2024-03-17T02:08:21;102218.97;;;5.54;86.65
68871;BME280;55906;52.278;6.808;2024-03-17T02:10:53;102211.63;;;5.49;87.32
68871;BME280;55906;52.278;6.808;2024-03-17T02:13:20;102212.53;;;5.49;87.13
68871;BME280;55906;52.278;6.808;2024-03-17T02:15:47;102203.59;;;5.45;86.83
68871;BME280;55906;52.278;6.808;2024-03-17T02:18:13;102212.53;;;5.49;86.98
68871;BME280;55906;52.278;6.808;2024-03-17T02:20:40;102210.63;;;5.46;86.48
68871;BME280;55906;52.278;6.808;2024-03-17T02:23:20;102210.41;;;5.43;86.72
68871;BME280;55906;52.278;6.808;2024-03-17T02:25:48;102201.38;;;5.38;86.42
68871;BME280;55906;52.278;6.808;2024-03-17T02:28:13;102203.88;;;5.37;86.56
68871;BME280;55906;52.278;6.808;2024-03-17T02:30:40;102205.69;;;5.38;86.62
68871;BME280;55906;52.278;6.808;2024-03-17T02:33:06;102198.44;;;5.34;86.61
68871;BME280;55906;52.278;6.808;2024-03-17T02:35:33;102197.44;;;5.32;87.38
68871;BME280;55906;52.278;6.808;2024-03-17T02:37:58;102180.81;;;5.18;87.34
68871;BME280;55906;52.278;6.808;2024-03-17T02:40:25;102180.81;;;5.18;87.14
68871;BME280;55906;52.278;6.808;2024-03-17T02:42:50;102205.84;;;5.28;87.46
68871;BME280;55906;52.278;6.808;2024-03-17T02:45:17;102201.66;;;5.30;87.35
68871;BME280;55906;52.278;6.808;2024-03-17T02:47:43;102171.66;;;5.11;87.38
68871;BME280;55906;52.278;6.808;2024-03-17T02:50:10;102191.59;;;5.23;87.94
68871;BME280;55906;52.278;6.808;2024-03-17T02:52:37;102194.41;;;5.26;87.92
68871;BME280;55906;52.278;6.808;2024-03-17T02:55:04;102197.91;;;5.26;87.15
68871;BME280;55906;52.278;6.808;2024-03-17T02:57:31;102187.38;;;5.25;87.16
68871;BME280;55906;52.278;6.808;2024-03-17T02:59:58;102157.72;;;5.11;87.02
68871;BME280;55906;52.278;6.808;2024-03-17T03:02:25;102173.09;;;5.20;87.04
68871;BME280;55906;52.278;6.808;2024-03-17T03:04:51;102157.63;;;5.09;87.02
68871;BME280;55906;52.278;6.808;2024-03-17T03:07:19;102149.38;;;5.03;87.61
68871;BME280;55906;52.278;6.808;2024-03-17T03:09:46;102179.00;;;5.17;87.18
68871;BME280;55906;52.278;6.808;2024-03-17T03:12:13;102171.56;;;5.10;87.74
68871;BME280;55906;52.278;6.808;2024-03-17T03:14:40;102175.50;;;5.17;87.65
68871;BME280;55906;52.278;6.808;2024-03-17T03:17:06;102164.09;;;5.03;87.84
68871;BME280;55906;52.278;6.808;2024-03-17T03:19:33;102185.50;;;5.10;86.99
68871;BME280;55906;52.278;6.808;2024-03-17T03:22:02;102180.06;;;5.07;87.05
68871;BME280;55906;52.278;6.808;2024-03-17T03:24:29;102197.16;;;5.15;87.60
68871;BME280;55906;52.278;6.808;2024-03-17T03:26:57;102198.97;;;5.17;86.94
68871;BME280;55906;52.278;6.808;2024-03-17T03:29:25;102204.97;;;5.15;86.88
68871;BME280;55906;52.278;6.808;2024-03-17T03:31:51;102189.81;;;5.10;87.48
68871;BME280;55906;52.278;6.808;2024-03-17T03:34:18;102203.06;;;5.13;86.64
68871;BME280;55906;52.278;6.808;2024-03-17T03:36:45;102196.94;;;5.12;87.94
68871;BME280;55906;52.278;6.808;2024-03-17T03:39:11;102178.06;;;5.03;87.74
68871;BME280;55906;52.278;6.808;2024-03-17T03:41:39;102191.31;;;5.06;87.05
68871;BME280;55906;52.278;6.808;2024-03-17T03:44:05;102195.13;;;5.11;87.22
68871;BME280;55906;52.278;6.808;2024-03-17T03:46:33;102196.13;;;5.13;87.19
68871;BME280;55906;52.278;6.808;2024-03-17T03:49:00;102187.41;;;5.13;87.54
68871;BME280;55906;52.278;6.808;2024-03-17T03:51:27;102201.69;;;5.18;87.45
68871;BME280;55906;52.278;6.808;2024-03-17T03:53:53;102187.63;;;5.16;87.39
68871;BME280;55906;52.278;6.808;2024-03-17T03:56:20;102188.22;;;5.12;87.89
68871;BME280;55906;52.278;6.808;2024-03-17T03:58:47;102188.53;;;5.17;87.62
68871;BME280;55906;52.278;6.808;2024-03-17T04:01:14;102193.28;;;5.22;87.13
68871;BME280;55906;52.278;6.808;2024-03-17T04:03:46;102196.81;;;5.23;87.50
68871;BME280;55906;52.278;6.808;2024-03-17T04:06:13;102189.88;;;5.23;87.46
68871;BME280;55906;52.278;6.808;2024-03-17T04:08:41;102187.28;;;5.23;87.86
68871;BME280;55906;52.278;6.808;2024-03-17T04:11:09;102181.25;;;5.24;87.53
68871;BME280;55906;52.278;6.808;2024-03-17T04:13:36;102177.84;;;5.25;87.70
68871;BME280;55906;52.278;6.808;2024-03-17T04:16:06;102179.97;;;5.31;87.93
68871;BME280;55906;52.278;6.808;2024-03-17T04:18:33;102182.78;;;5.34;87.72
68871;BME280;55906;52.278;6.808;2024-03-17T04:21:05;102185.91;;;5.41;88.02
68871;BME280;55906;52.278;6.808;2024-03-17T04:23:33;102166.75;;;5.41;87.62
68871;BME280;55906;52.278;6.808;2024-03-17T04:26:01;102169.97;;;5.50;87.92
68871;BME280;55906;52.278;6.808;2024-03-17T04:28:28;102159.34;;;5.47;87.78
68871;BME280;55906;52.278;6.808;2024-03-17T04:31:07;102160.75;;;5.55;87.96
68871;BME280;55906;52.278;6.808;2024-03-17T04:33:37;102162.75;;;5.59;88.42
68871;BME280;55906;52.278;6.808;2024-03-17T04:36:06;102161.16;;;5.61;88.82
68871;BME280;55906;52.278;6.808;2024-03-17T04:38:34;102165.78;;;5.65;88.38
68871;BME280;55906;52.278;6.808;2024-03-17T04:41:00;102163.66;;;5.73;87.67
68871;BME280;55906;52.278;6.808;2024-03-17T04:43:31;102158.66;;;5.76;87.90
68871;BME280;55906;52.278;6.808;2024-03-17T04:46:05;102156.13;;;5.77;88.52
68871;BME280;55906;52.278;6.808;2024-03-17T04:48:33;102123.22;;;5.66;88.77
68871;BME280;55906;52.278;6.808;2024-03-17T04:51:00;102114.38;;;5.64;88.63
68871;BME280;55906;52.278;6.808;2024-03-17T04:53:27;102148.09;;;5.88;88.76
68871;BME280;55906;52.278;6.808;2024-03-17T04:56:04;102153.97;;;5.97;88.11
68871;BME280;55906;52.278;6.808;2024-03-17T04:58:32;102104.03;;;5.79;88.47
68871;BME280;55906;52.278;6.808;2024-03-17T05:01:06;102136.97;;;6.03;88.54
68871;BME280;55906;52.278;6.808;2024-03-17T05:03:33;102136.16;;;6.04;87.33
68871;BME280;55906;52.278;6.808;2024-03-17T05:06:01;102129.03;;;6.02;87.70
68871;BME280;55906;52.278;6.808;2024-03-17T05:08:28;102128.44;;;6.06;87.56
68871;BME280;55906;52.278;6.808;2024-03-17T05:11:03;102130.63;;;6.13;88.40
68871;BME280;55906;52.278;6.808;2024-03-17T05:13:35;102121.91;;;6.13;88.52
68871;BME280;55906;52.278;6.808;2024-03-17T05:16:04;102118.09;;;6.07;87.76
68871;BME280;55906;52.278;6.808;2024-03-17T05:18:31;102122.00;;;6.14;87.73
68871;BME280;55906;52.278;6.808;2024-03-17T05:21:06;102111.97;;;6.07;87.49
68871;BME280;55906;52.278;6.808;2024-03-17T05:23:35;102107.44;;;6.04;88.08
68871;BME280;55906;52.278;6.808;2024-03-17T05:26:02;102133.53;;;6.18;88.02
68871;BME280;55906;52.278;6.808;2024-03-17T05:28:30;102120.19;;;6.13;87.86
68871;BME280;55906;52.278;6.808;2024-03-17T05:30:56;102124.00;;;6.18;87.75
68871;BME280;55906;52.278;6.808;2024-03-17T05:33:25;102125.81;;;6.19;87.49
68871;BME280;55906;52.278;6.808;2024-03-17T05:35:58;102120.66;;;6.21;87.45
68871;BME280;55906;52.278;6.808;2024-03-17T05:38:29;102112.44;;;6.15;87.30
68871;BME280;55906;52.278;6.808;2024-03-17T05:41:02;102116.75;;;6.14;87.58
68871;BME280;55906;52.278;6.808;2024-03-17T05:43:31;102092.66;;;6.05;87.81
68871;BME280;55906;52.278;6.808;2024-03-17T05:46:00;102103.59;;;6.13;87.61
68871;BME280;55906;52.278;6.808;2024-03-17T05:48:27;102100.81;;;6.09;87.25
68871;BME280;55906;52.278;6.808;2024-03-17T05:50:55;102119.19;;;6.11;87.72
68871;BME280;55906;52.278;6.808;2024-03-17T05:53:22;102114.97;;;6.13;87.81
68871;BME280;55906;52.278;6.808;2024-03-17T05:55:50;102100.31;;;6.02;87.10
68871;BME280;55906;52.278;6.808;2024-03-17T05:58:17;102118.88;;;6.06;87.22
68871;BME280;55906;52.278;6.808;2024-03-17T06:00:44;102129.81;;;6.14;87.72
68871;BME280;55906;52.278;6.808;2024-03-17T06:03:11;102118.19;;;6.09;87.49
68871;BME280;55906;52.278;6.808;2024-03-17T06:05:39;102118.47;;;6.14;87.16
68871;BME280;55906;52.278;6.808;2024-03-17T06:08:07;102105.94;;;6.08;87.73
68871;BME280;55906;52.278;6.808;2024-03-17T06:10:36;102110.13;;;6.19;87.14
68871;BME280;55906;52.278;6.808;2024-03-17T06:13:03;102116.03;;;6.30;87.34
68871;BME280;55906;52.278;6.808;2024-03-17T06:15:30;102112.50;;;6.29;86.97
68871;BME280;55906;52.278;6.808;2024-03-17T06:17:57;102114.00;;;6.39;87.26
68871;BME280;55906;52.278;6.808;2024-03-17T06:20:26;102122.31;;;6.47;87.26
68871;BME280;55906;52.278;6.808;2024-03-17T06:22:53;102112.47;;;6.56;87.76
68871;BME280;55906;52.278;6.808;2024-03-17T06:25:20;102114.91;;;6.67;87.26
68871;BME280;55906;52.278;6.808;2024-03-17T06:27:52;102091.09;;;6.63;86.83
68871;BME280;55906;52.278;6.808;2024-03-17T06:30:19;102112.34;;;6.82;87.05
68871;BME280;55906;52.278;6.808;2024-03-17T06:32:47;102116.69;;;6.96;87.04
68871;BME280;55906;52.278;6.808;2024-03-17T06:35:15;102108.59;;;7.06;85.71
68871;BME280;55906;52.278;6.808;2024-03-17T06:37:43;102091.09;;;7.05;85.81
68871;BME280;55906;52.278;6.808;2024-03-17T06:40:13;102085.59;;;7.16;85.87
68871;BME280;55906;52.278;6.808;2024-03-17T06:42:40;102086.03;;;7.23;85.14
68871;BME280;55906;52.278;6.808;2024-03-17T06:45:07;102101.91;;;7.41;84.89
68871;BME280;55906;52.278;6.808;2024-03-17T06:47:37;102104.44;;;7.54;84.95
68871;BME280;55906;52.278;6.808;2024-03-17T06:50:06;102116.41;;;7.65;84.71
68871;BME280;55906;52.278;6.808;2024-03-17T06:52:35;102118.66;;;7.74;84.26
68871;BME280;55906;52.278;6.808;2024-03-17T06:55:01;102117.13;;;7.78;83.92
68871;BME280;55906;52.278;6.808;2024-03-17T06:57:28;102125.72;;;7.90;83.83
68871;BME280;55906;52.278;6.808;2024-03-17T06:59:55;102118.19;;;7.96;83.69
68871;BME280;55906;52.278;6.808;2024-03-17T07:02:21;102126.53;;;7.89;81.97
68871;BME280;55906;52.278;6.808;2024-03-17T07:04:48;102119.19;;;7.98;82.67
68871;BME280;55906;52.278;6.808;2024-03-17T07:07:14;102122.66;;;8.13;82.44
68871;BME280;55906;52.278;6.808;2024-03-17T07:09:41;102118.56;;;8.18;81.73
68871;BME280;55906;52.278;6.808;2024-03-17T07:12:09;102116.53;;;8.29;82.03
68871;BME280;55906;52.278;6.808;2024-03-17T07:14:36;102127.50;;;8.37;81.82
68871;BME280;55906;52.278;6.808;2024-03-17T07:17:03;102101.34;;;8.38;81.92
68871;BME280;55906;52.278;6.808;2024-03-17T07:19:30;102121.19;;;8.65;81.17
68871;BME280;55906;52.278;6.808;2024-03-17T07:21:57;102095.22;;;8.70;80.96
68871;BME280;55906;52.278;6.808;2024-03-17T07:24:24;102096.84;;;8.84;80.50
68871;BME280;55906;52.278;6.808;2024-03-17T07:26:50;102085.69;;;8.88;79.86
68871;BME280;55906;52.278;6.808;2024-03-17T07:29:17;102113.38;;;9.16;79.64
68871;BME280;55906;52.278;6.808;2024-03-17T07:31:45;102104.72;;;9.35;78.98
68871;BME280;55906;52.278;6.808;2024-03-17T07:34:11;102112.09;;;9.59;78.46
68871;BME280;55906;52.278;6.808;2024-03-17T07:36:38;102109.56;;;9.79;77.29
68871;BME280;55906;52.278;6.808;2024-03-17T07:39:05;102106.69;;;9.92;75.92
68871;BME280;55906;52.278;6.808;2024-03-17T07:41:32;102093.47;;;10.08;76.73
68871;BME280;55906;52.278;6.808;2024-03-17T07:43:59;102116.44;;;10.30;75.24
68871;BME280;55906;52.278;6.808;2024-03-17T07:46:25;102115.47;;;10.28;73.46
68871;BME280;55906;52.278;6.808;2024-03-17T07:48:52;102123.78;;;10.55;74.78
68871;BME280;55906;52.278;6.808;2024-03-17T07:51:18;102118.03;;;10.64;74.50
68871;BME280;55906;52.278;6.808;2024-03-17T07:53:47;102120.25;;;10.74;73.34
68871;BME280;55906;52.278;6.808;2024-03-17T07:56:15;102114.56;;;10.84;73.43
68871;BME280;55906;52.278;6.808;2024-03-17T07:58:43;102105.00;;;10.86;72.47
68871;BME280;55906;52.278;6.808;2024-03-17T08:01:14;102097.66;;;10.98;70.78
68871;BME280;55906;52.278;6.808;2024-03-17T08:03:44;102111.16;;;11.06;70.23
68871;BME280;55906;52.278;6.808;2024-03-17T08:06:11;102095.22;;;11.03;69.25
68871;BME280;55906;52.278;6.808;2024-03-17T08:08:38;102093.69;;;11.08;68.61
68871;BME280;55906;52.278;6.808;2024-03-17T08:11:04;102108.22;;;11.19;67.82
68871;BME280;55906;52.278;6.808;2024-03-17T08:13:32;102112.28;;;11.32;67.98
68871;BME280;55906;52.278;6.808;2024-03-17T08:16:02;102118.63;;;11.37;68.41
68871;BME280;55906;52.278;6.808;2024-03-17T08:18:31;102112.88;;;11.45;68.00
68871;BME280;55906;52.278;6.808;2024-03-17T08:21:00;102128.72;;;11.68;68.04
68871;BME280;55906;52.278;6.808;2024-03-17T08:23:26;102125.34;;;11.70;67.42
68871;BME280;55906;52.278;6.808;2024-03-17T08:25:53;102136.38;;;11.62;66.47
68871;BME280;55906;52.278;6.808;2024-03-17T08:28:21;102135.88;;;11.49;65.79
68871;BME280;55906;52.278;6.808;2024-03-17T08:30:54;102140.19;;;11.68;64.73
68871;BME280;55906;52.278;6.808;2024-03-17T08:33:22;102128.66;;;11.66;65.58
68871;BME280;55906;52.278;6.808;2024-03-17T08:35:56;102123.19;;;11.81;65.01
68871;BME280;55906;52.278;6.808;2024-03-17T08:38:23;102121.66;;;11.86;64.91
68871;BME280;55906;52.278;6.808;2024-03-17T08:40:51;102122.09;;;11.97;64.21
68871;BME280;55906;52.278;6.808;2024-03-17T08:43:19;102119.03;;;12.08;63.38
68871;BME280;55906;52.278;6.808;2024-03-17T08:45:59;102119.63;;;12.24;63.49
68871;BME280;55906;52.278;6.808;2024-03-17T08:48:28;102115.25;;;12.24;63.62
68871;BME280;55906;52.278;6.808;2024-03-17T08:50:56;102117.59;;;12.16;62.23
68871;BME280;55906;52.278;6.808;2024-03-17T08:53:23;102113.75;;;12.31;63.33
68871;BME280;55906;52.278;6.808;2024-03-17T08:55:50;102107.63;;;12.32;62.44
68871;BME280;55906;52.278;6.808;2024-03-17T08:58:17;102117.28;;;12.31;61.33
68871;BME280;55906;52.278;6.808;2024-03-17T09:00:44;102116.22;;;12.26;61.73
68871;BME280;55906;52.278;6.808;2024-03-17T09:03:11;102119.41;;;12.40;61.41
68871;BME280;55906;52.278;6.808;2024-03-17T09:05:39;102114.88;;;12.83;61.81
68871;BME280;55906;52.278;6.808;2024-03-17T09:08:07;102105.09;;;13.54;58.82
68871;BME280;55906;52.278;6.808;2024-03-17T09:10:41;102099.47;;;14.26;56.60
68871;BME280;55906;52.278;6.808;2024-03-17T09:13:21;102109.38;;;14.90;55.21
68871;BME280;55906;52.278;6.808;2024-03-17T09:18:19;102095.09;;;15.84;53.13
68871;BME280;55906;52.278;6.808;2024-03-17T09:20:46;102097.13;;;16.33;50.94
68871;BME280;55906;52.278;6.808;2024-03-17T09:23:12;102090.84;;;16.70;49.67
68871;BME280;55906;52.278;6.808;2024-03-17T09:25:39;102087.16;;;17.06;49.89
68871;BME280;55906;52.278;6.808;2024-03-17T09:28:05;102089.28;;;16.80;48.36
68871;BME280;55906;52.278;6.808;2024-03-17T09:30:32;102081.69;;;16.98;49.09
68871;BME280;55906;52.278;6.808;2024-03-17T09:32:59;102090.47;;;16.94;47.57
68871;BME280;55906;52.278;6.808;2024-03-17T09:35:26;102088.19;;;17.14;48.04
68871;BME280;55906;52.278;6.808;2024-03-17T09:37:52;102079.34;;;17.65;47.19
68871;BME280;55906;52.278;6.808;2024-03-17T09:40:19;102093.31;;;18.06;46.15
68871;BME280;55906;52.278;6.808;2024-03-17T09:42:45;102084.59;;;18.17;44.01
68871;BME280;55906;52.278;6.808;2024-03-17T09:45:12;102070.81;;;17.85;42.82
68871;BME280;55906;52.278;6.808;2024-03-17T09:47:40;102079.47;;;18.28;42.65
68871;BME280;55906;52.278;6.808;2024-03-17T09:50:13;102082.22;;;18.36;42.84
68871;BME280;55906;52.278;6.808;2024-03-17T10:54:01;102072.56;;;15.33;50.01
68871;BME280;55906;52.278;6.808;2024-03-17T10:56:28;102065.91;;;15.51;49.25
68871;BME280;55906;52.278;6.808;2024-03-17T10:58:55;102071.16;;;15.48;48.78
68871;BME280;55906;52.278;6.808;2024-03-17T11:01:25;102066.84;;;15.53;48.00
68871;BME280;55906;52.278;6.808;2024-03-17T11:03:52;102077.06;;;15.69;49.22
68871;BME280;55906;52.278;6.808;2024-03-17T11:06:19;102077.97;;;15.71;48.98
68871;BME280;55906;52.278;6.808;2024-03-17T11:08:45;102079.94;;;15.78;49.17
68871;BME280;55906;52.278;6.808;2024-03-17T11:11:12;102079.63;;;15.66;48.14
68871;BME280;55906;52.278;6.808;2024-03-17T11:13:39;102084.53;;;15.52;49.61
68871;BME280;55906;52.278;6.808;2024-03-17T11:16:25;102076.69;;;15.57;49.06
68871;BME280;55906;52.278;6.808;2024-03-17T11:19:05;102079.25;;;15.54;48.42
68871;BME280;55906;52.278;6.808;2024-03-17T11:21:32;102066.03;;;15.55;50.25
68871;BME280;55906;52.278;6.808;2024-03-17T11:24:01;102068.56;;;15.51;50.35
68871;BME280;55906;52.278;6.808;2024-03-17T11:26:33;102063.25;;;15.51;49.81
68871;BME280;55906;52.278;6.808;2024-03-17T11:29:00;102060.31;;;15.38;49.38
68871;BME280;55906;52.278;6.808;2024-03-17T11:31:37;102073.56;;;15.38;48.65
68871;BME280;55906;52.278;6.808;2024-03-17T11:34:07;102069.72;;;15.26;50.17
68871;BME280;55906;52.278;6.808;2024-03-17T11:36:51;102070.31;;;15.16;50.10
68871;BME280;55906;52.278;6.808;2024-03-17T11:39:18;102067.78;;;15.20;50.31
68871;BME280;55906;52.278;6.808;2024-03-17T11:41:47;102066.13;;;15.24;50.44
68871;BME280;55906;52.278;6.808;2024-03-17T11:46:56;102063.19;;;15.13;48.46
68871;BME280;55906;52.278;6.808;2024-03-17T11:49:37;102058.81;;;15.15;48.24
68871;BME280;55906;52.278;6.808;2024-03-17T11:52:14;102053.53;;;15.15;49.01
68871;BME280;55906;52.278;6.808;2024-03-17T11:54:44;102054.34;;;15.13;49.42
68871;BME280;55906;52.278;6.808;2024-03-17T11:57:12;102060.72;;;15.21;50.54
68871;BME280;55906;52.278;6.808;2024-03-17T11:59:39;102049.22;;;15.20;50.39
68871;BME280;55906;52.278;6.808;2024-03-17T12:02:26;102045.84;;;15.26;48.69
68871;BME280;55906;52.278;6.808;2024-03-17T12:04:53;102041.34;;;15.23;50.04
68871;BME280;55906;52.278;6.808;2024-03-17T12:07:21;102040.41;;;15.21;49.95
68871;BME280;55906;52.278;6.808;2024-03-17T12:09:48;102032.50;;;15.23;49.94
68871;BME280;55906;52.278;6.808;2024-03-17T12:12:18;102030.72;;;15.22;50.01
68871;BME280;55906;52.278;6.808;2024-03-17T12:14:45;102029.06;;;15.27;50.40
68871;BME280;55906;52.278;6.808;2024-03-17T12:17:14;102025.69;;;15.32;49.94
68871;BME280;55906;52.278;6.808;2024-03-17T12:19:40;102020.09;;;15.22;49.74
68871;BME280;55906;52.278;6.808;2024-03-17T12:22:16;102017.66;;;15.29;49.74
68871;BME280;55906;52.278;6.808;2024-03-17T12:24:43;102016.91;;;15.35;49.84
68871;BME280;55906;52.278;6.808;2024-03-17T12:27:17;102019.78;;;15.44;49.41
68871;BME280;55906;52.278;6.808;2024-03-17T12:29:42;102012.78;;;15.48;49.83
68871;BME280;55906;52.278;6.808;2024-03-17T12:34:35;102006.03;;;15.59;49.09
68871;BME280;55906;52.278;6.808;2024-03-17T12:37:02;102008.06;;;15.69;49.18
68871;BME280;55906;52.278;6.808;2024-03-17T12:39:30;102008.22;;;15.75;49.00
68871;BME280;55906;52.278;6.808;2024-03-17T12:42:06;102002.28;;;15.87;48.83
68871;BME280;55906;52.278;6.808;2024-03-17T12:44:43;102002.16;;;15.81;48.52
68871;BME280;55906;52.278;6.808;2024-03-17T12:47:17;101994.34;;;15.88;48.90
68871;BME280;55906;52.278;6.808;2024-03-17T12:49:48;101989.22;;;15.96;48.62
68871;BME280;55906;52.278;6.808;2024-03-17T12:52:24;101980.53;;;16.03;48.18
68871;BME280;55906;52.278;6.808;2024-03-17T12:55:06;101990.31;;;16.06;46.78
68871;BME280;55906;52.278;6.808;2024-03-17T12:58:11;101977.09;;;16.09;47.48
68871;BME280;55906;52.278;6.808;2024-03-17T13:01:05;101981.38;;;16.02;47.04
68871;BME280;55906;52.278;6.808;2024-03-17T13:03:36;101976.09;;;16.04;48.00
68871;BME280;55906;52.278;6.808;2024-03-17T13:06:05;101966.34;;;16.03;47.83
68871;BME280;55906;52.278;6.808;2024-03-17T13:08:33;101955.47;;;15.90;46.51
68871;BME280;55906;52.278;6.808;2024-03-17T13:11:00;101951.53;;;16.14;47.95
68871;BME280;55906;52.278;6.808;2024-03-17T13:13:29;101955.06;;;16.13;46.03
68871;BME280;55906;52.278;6.808;2024-03-17T13:15:55;101945.50;;;16.21;47.54
68871;BME280;55906;52.278;6.808;2024-03-17T13:18:22;101943.78;;;16.24;48.18
68871;BME280;55906;52.278;6.808;2024-03-17T13:20:48;101953.56;;;16.25;47.34
68871;BME280;55906;52.278;6.808;2024-03-17T13:23:16;101945.66;;;16.30;48.14
68871;BME280;55906;52.278;6.808;2024-03-17T13:25:43;101941.34;;;16.35;47.32
68871;BME280;55906;52.278;6.808;2024-03-17T13:28:10;101939.44;;;16.28;48.15
68871;BME280;55906;52.278;6.808;2024-03-17T13:30:37;101936.66;;;16.22;47.62
68871;BME280;55906;52.278;6.808;2024-03-17T13:33:05;101926.84;;;16.18;47.72
68871;BME280;55906;52.278;6.808;2024-03-17T13:35:35;101924.38;;;16.27;47.32
68871;BME280;55906;52.278;6.808;2024-03-17T13:38:07;101926.88;;;16.19;47.63
68871;BME280;55906;52.278;6.808;2024-03-17T13:40:35;101925.91;;;16.16;48.29
68871;BME280;55906;52.278;6.808;2024-03-17T13:43:03;101924.94;;;16.11;47.80
68871;BME280;55906;52.278;6.808;2024-03-17T13:45:34;101916.84;;;16.05;48.33
68871;BME280;55906;52.278;6.808;2024-03-17T13:48:05;101905.03;;;15.90;48.44
68871;BME280;55906;52.278;6.808;2024-03-17T13:50:34;101908.56;;;15.89;48.18
68871;BME280;55906;52.278;6.808;2024-03-17T13:53:00;101898.63;;;15.79;49.06
68871;BME280;55906;52.278;6.808;2024-03-17T13:55:28;101898.63;;;15.79;48.65
68871;BME280;55906;52.278;6.808;2024-03-17T13:57:56;101899.41;;;15.75;48.25
68871;BME280;55906;52.278;6.808;2024-03-17T14:00:25;101896.78;;;15.77;49.61
68871;BME280;55906;52.278;6.808;2024-03-17T14:02:53;101890.50;;;15.72;48.83
68871;BME280;55906;52.278;6.808;2024-03-17T14:05:21;101893.19;;;15.73;48.97
68871;BME280;55906;52.278;6.808;2024-03-17T14:07:48;101883.44;;;15.72;49.38
68871;BME280;55906;52.278;6.808;2024-03-17T14:10:17;101880.78;;;15.72;48.96